createdAt,value
2022-10-08T00:01:31.604Z,18.70
2022-10-08T00:03:59.986Z,17.73
2022-10-08T00:06:30.212Z,18.83
2022-10-08T00:08:59.843Z,18.20
2022-10-08T00:11:30.099Z,21.13
2022-10-08T00:13:58.401Z,18.03
2022-10-08T00:16:29.329Z,19.50
2022-10-08T00:19:01.283Z,21.27
2022-10-08T00:21:31.660Z,18.37
2022-10-08T00:24:01.620Z,19.00
2022-10-08T00:26:31.437Z,19.67
2022-10-08T00:29:01.769Z,18.17
2022-10-08T00:31:33.116Z,19.93
2022-10-08T00:34:04.579Z,21.37
2022-10-08T00:36:33.944Z,20.13
2022-10-08T00:39:03.767Z,19.70
2022-10-08T00:41:34.011Z,19.27
2022-10-08T00:44:39.380Z,20.50
2022-10-08T00:47:10.024Z,18.83
2022-10-08T00:49:39.903Z,19.73
2022-10-08T00:52:08.734Z,20.17
2022-10-08T00:54:36.905Z,20.97
2022-10-08T00:57:06.529Z,21.70
2022-10-08T00:59:34.685Z,20.97
2022-10-08T01:02:02.944Z,24.37
2022-10-08T01:04:31.806Z,25.80
2022-10-08T01:07:07.138Z,28.67
2022-10-08T01:09:39.765Z,33.27
2022-10-08T01:12:11.878Z,28.77
2022-10-08T01:14:46.175Z,28.90
2022-10-08T01:17:19.635Z,30.00
2022-10-08T01:20:17.000Z,33.50
2022-10-08T01:23:00.176Z,28.53
2022-10-08T01:25:33.849Z,29.53
2022-10-08T01:28:10.074Z,35.67
2022-10-08T01:30:42.254Z,30.63
2022-10-08T01:33:15.016Z,34.87
2022-10-08T01:35:45.878Z,34.70
2022-10-08T01:38:18.673Z,37.13
2022-10-08T01:40:48.450Z,38.60
2022-10-08T01:43:20.168Z,30.27
2022-10-08T01:45:53.602Z,35.00
2022-10-08T01:48:23.796Z,36.93
2022-10-08T01:50:54.983Z,33.00
2022-10-08T01:53:23.853Z,35.63
2022-10-08T01:55:54.305Z,33.37
2022-10-08T01:58:29.135Z,33.03
2022-10-08T02:00:58.545Z,36.50
2022-10-08T02:03:26.748Z,36.43
2022-10-08T02:05:55.386Z,35.70
2022-10-08T02:08:24.658Z,31.83
2022-10-08T02:10:53.265Z,32.47
2022-10-08T02:13:21.521Z,30.83
2022-10-08T02:15:55.545Z,36.07
2022-10-08T02:18:32.258Z,35.40
2022-10-08T02:21:01.768Z,36.93
2022-10-08T02:23:32.247Z,33.73
2022-10-08T02:26:01.635Z,36.53
2022-10-08T02:28:33.397Z,43.47
2022-10-08T02:31:07.976Z,38.37
2022-10-08T02:33:39.455Z,35.23
2022-10-08T02:36:09.686Z,39.23
2022-10-08T02:38:41.756Z,32.53
2022-10-08T02:41:10.695Z,35.10
2022-10-08T02:43:43.539Z,39.13
2022-10-08T02:46:17.426Z,39.70
2022-10-08T02:48:47.635Z,41.87
2022-10-08T02:51:18.995Z,37.57
2022-10-08T02:53:48.485Z,41.13
2022-10-08T02:56:21.549Z,45.30
2022-10-08T02:58:49.786Z,44.13
2022-10-08T03:01:26.749Z,45.83
2022-10-08T03:03:59.974Z,45.73
2022-10-08T03:06:30.263Z,57.57
2022-10-08T03:08:59.768Z,56.07
2022-10-08T03:11:28.613Z,54.07
2022-10-08T03:13:58.490Z,49.17
2022-10-08T03:16:34.060Z,68.17
2022-10-08T03:19:03.827Z,56.70
2022-10-08T03:21:32.507Z,58.43
2022-10-08T03:24:00.823Z,67.27
2022-10-08T03:26:29.021Z,52.13
2022-10-08T03:28:57.112Z,69.13
2022-10-08T03:31:25.627Z,93.83
2022-10-08T03:33:55.812Z,84.63
2022-10-08T03:36:25.182Z,80.30
2022-10-08T03:38:53.620Z,91.33
2022-10-08T03:41:21.874Z,60.47
2022-10-08T03:43:49.953Z,66.37
2022-10-08T03:46:18.477Z,61.17
2022-10-08T03:48:49.722Z,62.80
2022-10-08T03:51:20.705Z,57.13
2022-10-08T03:53:49.052Z,86.77
2022-10-08T03:56:19.020Z,55.80
2022-10-08T03:58:47.507Z,54.07
2022-10-08T04:01:17.126Z,57.47
2022-10-08T04:03:46.571Z,68.57
2022-10-08T04:06:15.017Z,46.40
2022-10-08T04:08:44.654Z,74.57
2022-10-08T04:11:14.121Z,51.97
2022-10-08T04:13:42.576Z,48.93
2022-10-08T04:16:13.225Z,40.70
2022-10-08T04:18:41.573Z,40.67
2022-10-08T04:21:11.142Z,41.23
2022-10-08T04:23:40.935Z,36.70
2022-10-08T04:26:11.505Z,43.60
2022-10-08T04:28:41.309Z,42.80
2022-10-08T04:31:12.159Z,41.23
2022-10-08T04:33:40.752Z,39.43
2022-10-08T04:36:09.885Z,39.20
2022-10-08T04:38:38.359Z,35.73
2022-10-08T04:41:07.942Z,35.03
2022-10-08T04:43:38.943Z,38.23
2022-10-08T04:46:08.724Z,37.53
2022-10-08T04:48:37.442Z,34.23
2022-10-08T04:51:10.595Z,33.20
2022-10-08T04:53:39.207Z,34.77
2022-10-08T04:56:12.202Z,34.27
2022-10-08T04:58:41.912Z,33.93
2022-10-08T05:01:12.629Z,34.57
2022-10-08T05:03:42.659Z,32.43
2022-10-08T05:06:11.712Z,32.23
2022-10-08T05:08:40.233Z,30.53
2022-10-08T05:11:08.595Z,31.13
2022-10-08T05:13:37.036Z,31.50
2022-10-08T05:16:07.870Z,31.97
2022-10-08T05:18:36.675Z,33.73
2022-10-08T05:21:06.653Z,31.43
2022-10-08T05:23:35.341Z,32.17
2022-10-08T05:26:03.612Z,31.33
2022-10-08T05:28:32.106Z,30.40
2022-10-08T05:31:03.264Z,31.73
2022-10-08T05:33:32.892Z,30.40
2022-10-08T05:36:04.192Z,32.00
2022-10-08T05:38:34.928Z,29.13
2022-10-08T05:41:11.942Z,30.53
2022-10-08T05:43:40.242Z,30.67
2022-10-08T05:46:08.605Z,30.23
2022-10-08T05:48:38.769Z,30.07
2022-10-08T05:51:08.504Z,30.93
2022-10-08T05:53:37.742Z,29.47
2022-10-08T05:56:07.571Z,30.10
2022-10-08T05:58:36.958Z,28.67
2022-10-08T06:01:07.735Z,31.80
2022-10-08T06:03:37.553Z,31.23
2022-10-08T06:06:08.070Z,30.40
2022-10-08T06:08:37.500Z,31.03
2022-10-08T06:11:07.433Z,31.03
2022-10-08T06:13:35.665Z,32.27
2022-10-08T06:16:06.804Z,31.53
2022-10-08T06:18:38.131Z,31.83
2022-10-08T06:21:07.798Z,31.43
2022-10-08T06:23:36.232Z,31.77
2022-10-08T06:26:05.217Z,30.53
2022-10-08T06:28:34.307Z,31.07
2022-10-08T06:31:02.959Z,30.60
2022-10-08T06:33:32.306Z,31.07
2022-10-08T06:36:05.512Z,30.30
2022-10-08T06:38:33.885Z,29.37
2022-10-08T06:41:02.174Z,32.07
2022-10-08T06:43:30.333Z,30.10
2022-10-08T06:46:00.371Z,30.87
2022-10-08T06:48:29.415Z,29.63
2022-10-08T06:51:01.154Z,31.97
2022-10-08T06:53:30.739Z,28.63
2022-10-08T06:55:59.351Z,30.73
2022-10-08T06:58:27.902Z,31.00
2022-10-08T07:01:03.767Z,34.60
2022-10-08T07:03:32.673Z,32.67
2022-10-08T07:06:04.073Z,29.57
2022-10-08T07:08:33.813Z,29.93
2022-10-08T07:11:05.566Z,31.33
2022-10-08T07:13:33.813Z,30.10
2022-10-08T07:16:06.131Z,31.57
2022-10-08T07:18:37.016Z,31.00
2022-10-08T07:21:06.013Z,27.57
2022-10-08T07:23:35.878Z,30.23
2022-10-08T07:26:06.172Z,30.23
2022-10-08T07:28:36.095Z,30.60
2022-10-08T07:31:06.036Z,30.07
2022-10-08T07:33:34.222Z,30.10
2022-10-08T07:36:10.722Z,31.47
2022-10-08T07:38:40.631Z,27.13
2022-10-08T07:41:09.843Z,29.07
2022-10-08T07:43:41.168Z,28.63
2022-10-08T07:46:09.934Z,28.50
2022-10-08T07:48:38.562Z,27.30
2022-10-08T07:51:11.132Z,29.47
2022-10-08T07:53:41.330Z,28.00
2022-10-08T07:56:11.494Z,29.07
2022-10-08T07:58:40.219Z,29.40
2022-10-08T08:01:10.474Z,28.40
2022-10-08T08:03:38.713Z,28.53
2022-10-08T08:06:09.437Z,28.77
2022-10-08T08:08:39.407Z,27.73
2022-10-08T08:11:10.763Z,29.13
2022-10-08T08:13:40.860Z,28.90
2022-10-08T08:16:11.051Z,29.70
2022-10-08T08:18:40.577Z,28.13
2022-10-08T08:21:11.622Z,26.53
2022-10-08T08:23:41.487Z,26.83
2022-10-08T08:26:12.601Z,27.87
2022-10-08T08:28:41.967Z,26.33
2022-10-08T08:31:11.672Z,25.87
2022-10-08T08:33:40.333Z,25.67
2022-10-08T08:36:08.706Z,29.07
2022-10-08T08:38:37.344Z,25.93
2022-10-08T08:41:22.327Z,31.77
2022-10-08T08:43:50.654Z,25.73
2022-10-08T08:46:20.721Z,25.27
2022-10-08T08:48:49.045Z,25.50
2022-10-08T08:51:17.926Z,24.23
2022-10-08T08:53:46.230Z,24.93
2022-10-08T08:56:17.911Z,22.80
2022-10-08T08:58:49.506Z,24.77
2022-10-08T09:01:25.762Z,24.33
2022-10-08T09:03:55.540Z,24.87
2022-10-08T09:06:26.080Z,23.20
2022-10-08T09:08:56.870Z,23.77
2022-10-08T09:11:26.833Z,25.57
2022-10-08T09:13:59.594Z,24.17
2022-10-08T09:16:29.317Z,23.40
2022-10-08T09:18:57.555Z,23.77
2022-10-08T09:21:26.713Z,22.30
2022-10-08T09:23:54.932Z,23.57
2022-10-08T09:26:25.305Z,23.90
2022-10-08T09:28:55.846Z,23.20
2022-10-08T09:31:29.867Z,22.27
2022-10-08T09:34:07.962Z,21.93
2022-10-08T09:36:38.025Z,22.90
2022-10-08T09:39:08.019Z,20.73
2022-10-08T09:41:36.282Z,20.97
2022-10-08T09:44:15.542Z,21.27
2022-10-08T09:46:43.982Z,21.17
2022-10-08T09:49:26.982Z,21.87
2022-10-08T09:51:55.581Z,21.93
2022-10-08T09:54:26.282Z,22.43
2022-10-08T09:56:56.462Z,21.07
2022-10-08T09:59:27.724Z,20.37
2022-10-08T10:01:56.692Z,21.17
2022-10-08T10:04:32.640Z,20.80
2022-10-08T10:07:01.093Z,21.07
2022-10-08T10:09:40.157Z,19.37
2022-10-08T10:12:15.411Z,22.00
2022-10-08T10:14:47.960Z,20.93
2022-10-08T10:17:21.864Z,19.37
2022-10-08T10:19:55.033Z,20.03
2022-10-08T10:22:27.812Z,20.17
2022-10-08T10:25:01.753Z,19.80
2022-10-08T10:27:33.461Z,20.43
2022-10-08T10:30:08.534Z,20.27
2022-10-08T10:32:39.472Z,20.90
2022-10-08T10:35:13.761Z,20.50
2022-10-08T10:37:47.242Z,21.53
2022-10-08T10:40:30.975Z,21.13
2022-10-08T10:43:13.955Z,20.63
2022-10-08T10:45:46.414Z,20.77
2022-10-08T10:48:15.710Z,20.47
2022-10-08T10:51:02.520Z,20.50
2022-10-08T10:53:38.533Z,20.20
2022-10-08T10:56:10.313Z,19.23
2022-10-08T10:59:04.750Z,19.27
2022-10-08T11:01:41.874Z,20.20
2022-10-08T11:04:12.253Z,20.63
2022-10-08T11:07:00.873Z,20.00
2022-10-08T11:09:35.212Z,18.77
2022-10-08T11:12:07.272Z,20.90
2022-10-08T11:14:44.981Z,19.63
2022-10-08T11:17:25.627Z,18.47
2022-10-08T11:20:02.932Z,18.63
2022-10-08T11:22:35.786Z,19.17
2022-10-08T11:25:15.902Z,18.40
2022-10-08T11:27:49.477Z,17.50
2022-10-08T11:30:20.566Z,17.73
2022-10-08T11:32:54.973Z,17.27
2022-10-08T11:35:28.762Z,17.20
2022-10-08T11:38:02.272Z,17.27
2022-10-08T11:40:33.627Z,17.90
2022-10-08T11:43:07.228Z,17.50
2022-10-08T11:45:38.242Z,17.77
2022-10-08T11:48:27.243Z,18.93
2022-10-08T11:50:55.492Z,19.83
2022-10-08T11:53:23.773Z,19.10
2022-10-08T11:55:54.782Z,18.23
2022-10-08T11:58:25.223Z,19.20
2022-10-08T12:00:55.346Z,18.33
2022-10-08T12:03:30.459Z,17.93
2022-10-08T12:06:00.283Z,19.67
2022-10-08T12:08:52.964Z,18.00
2022-10-08T12:11:49.322Z,17.20
2022-10-08T12:14:33.793Z,17.10
2022-10-08T12:17:12.404Z,18.50
2022-10-08T12:19:46.683Z,17.60
2022-10-08T12:22:43.488Z,15.47
2022-10-08T12:25:36.632Z,15.67
2022-10-08T12:28:39.516Z,17.73
2022-10-08T12:31:39.492Z,17.77
2022-10-08T12:34:18.104Z,16.70
2022-10-08T12:37:01.932Z,30.13
2022-10-08T12:39:42.773Z,17.03
2022-10-08T12:42:19.414Z,15.40
2022-10-08T12:45:01.853Z,6.33
2022-10-08T12:47:43.090Z,5.53
2022-10-08T12:50:39.706Z,4.63
2022-10-08T12:53:13.810Z,4.57
2022-10-08T12:55:48.384Z,3.80
2022-10-08T12:58:19.613Z,3.43
2022-10-08T13:00:51.743Z,4.77
2022-10-08T13:03:20.492Z,6.53
2022-10-08T13:05:49.345Z,4.70
2022-10-08T13:08:29.753Z,4.83
2022-10-08T13:10:58.913Z,4.67
2022-10-08T13:13:35.862Z,4.60
2022-10-08T13:16:05.853Z,4.00
2022-10-08T13:18:35.480Z,4.40
2022-10-08T13:21:04.853Z,3.67
2022-10-08T13:23:37.002Z,4.07
2022-10-08T13:26:05.402Z,3.70
2022-10-08T13:28:59.360Z,3.73
2022-10-08T13:31:24.172Z,3.83
2022-10-08T13:33:52.522Z,3.50
2022-10-08T13:36:23.252Z,4.00
2022-10-08T13:38:52.952Z,3.57
2022-10-08T13:41:24.215Z,4.23
2022-10-08T13:43:52.855Z,3.40
2022-10-08T13:46:21.153Z,3.30
2022-10-08T13:48:49.334Z,3.23
2022-10-08T13:51:17.513Z,3.70
2022-10-08T13:53:45.919Z,3.70
2022-10-08T13:56:18.321Z,3.23
2022-10-08T13:58:46.464Z,3.43
2022-10-08T14:01:14.666Z,3.17
2022-10-08T14:03:42.854Z,4.00
2022-10-08T14:06:10.952Z,6.53
2022-10-08T14:08:39.152Z,2.93
2022-10-08T14:11:17.962Z,4.87
2022-10-08T14:13:46.075Z,4.10
2022-10-08T14:16:14.517Z,3.00
2022-10-08T14:18:43.106Z,2.77
2022-10-08T14:21:12.153Z,2.97
2022-10-08T14:23:40.383Z,2.97
2022-10-08T14:26:11.177Z,3.67
2022-10-08T14:28:40.862Z,2.43
2022-10-08T14:31:09.117Z,4.60
2022-10-08T14:33:37.800Z,2.83
2022-10-08T14:36:08.373Z,3.37
2022-10-08T14:38:36.572Z,6.10
2022-10-08T14:41:04.732Z,3.30
2022-10-08T14:43:32.925Z,5.53
2022-10-08T14:46:02.939Z,3.47
2022-10-08T14:48:31.112Z,2.83
2022-10-08T14:50:59.332Z,2.57
2022-10-08T14:53:27.553Z,3.93
2022-10-08T14:56:11.549Z,2.53
2022-10-08T14:58:40.484Z,3.57
2022-10-08T15:01:10.221Z,5.20
2022-10-08T15:03:38.436Z,3.80
2022-10-08T15:06:06.853Z,5.57
2022-10-08T15:08:35.272Z,3.37
2022-10-08T15:11:04.478Z,2.80
2022-10-08T15:13:32.664Z,4.33
2022-10-08T15:16:00.886Z,2.97
2022-10-08T15:18:31.312Z,1.93
2022-10-08T15:21:01.170Z,2.27
2022-10-08T15:23:29.553Z,5.70
2022-10-08T15:25:59.513Z,5.20
2022-10-08T15:28:29.072Z,4.00
2022-10-08T15:31:04.978Z,4.43
2022-10-08T15:33:38.482Z,5.05
2022-10-08T15:36:15.672Z,3.17
2022-10-08T15:38:44.083Z,2.03
2022-10-08T15:41:12.272Z,3.97
2022-10-08T15:43:40.412Z,3.47
2022-10-08T15:46:11.177Z,3.30
2022-10-08T15:48:41.225Z,2.60
2022-10-08T15:51:09.372Z,3.70
2022-10-08T15:53:39.422Z,2.50
2022-10-08T15:56:07.683Z,5.60
2022-10-08T15:58:50.445Z,6.97
2022-10-08T16:01:21.032Z,17.33
2022-10-08T16:03:53.209Z,12.57
2022-10-08T16:06:23.742Z,5.00
2022-10-08T16:08:52.223Z,5.93
2022-10-08T16:11:22.744Z,2.93
2022-10-08T16:13:52.752Z,3.77
2022-10-08T16:16:21.555Z,8.60
2022-10-08T16:18:55.883Z,3.33
2022-10-08T16:21:24.417Z,5.00
2022-10-08T16:23:52.740Z,3.23
2022-10-08T16:26:23.186Z,4.57
2022-10-08T16:28:55.220Z,2.93
2022-10-08T16:31:24.173Z,4.13
2022-10-08T16:33:57.672Z,3.30
2022-10-08T16:36:26.433Z,5.83
2022-10-08T16:38:55.002Z,3.00
2022-10-08T16:41:24.642Z,3.70
2022-10-08T16:43:54.602Z,3.63
2022-10-08T16:46:24.259Z,4.23
2022-10-08T16:48:53.203Z,3.63
2022-10-08T16:51:24.193Z,7.33
2022-10-08T16:53:53.733Z,4.87
2022-10-08T16:56:22.408Z,4.67
2022-10-08T16:58:53.423Z,3.73
2022-10-08T17:01:21.762Z,5.07
2022-10-08T17:03:51.202Z,4.27
2022-10-08T17:06:20.453Z,3.83
2022-10-08T17:08:50.250Z,4.10
2022-10-08T17:11:19.514Z,3.70
2022-10-08T17:13:49.958Z,3.30
2022-10-08T17:16:19.477Z,5.07
2022-10-08T17:18:48.284Z,3.90
2022-10-08T17:21:17.123Z,5.83
2022-10-08T17:23:47.004Z,3.50
2022-10-08T17:26:18.972Z,5.67
2022-10-08T17:28:48.435Z,3.30
2022-10-08T17:31:18.634Z,4.80
2022-10-08T17:33:46.977Z,5.17
2022-10-08T17:36:17.346Z,8.53
2022-10-08T17:38:47.294Z,5.77
2022-10-08T17:41:18.246Z,6.33
2022-10-08T17:43:47.394Z,5.77
2022-10-08T17:46:17.595Z,7.47
2022-10-08T17:48:46.666Z,6.20
2022-10-08T17:51:16.316Z,7.40
2022-10-08T17:53:45.322Z,9.17
2022-10-08T17:56:15.133Z,11.07
2022-10-08T17:58:44.642Z,9.00
2022-10-08T18:01:14.520Z,5.90
2022-10-08T18:03:44.061Z,6.67
2022-10-08T18:06:13.082Z,6.00
2022-10-08T18:08:41.193Z,6.20
2022-10-08T18:11:12.376Z,6.50
2022-10-08T18:13:40.652Z,8.97
2022-10-08T18:16:12.075Z,10.27
2022-10-08T18:18:40.474Z,9.13
2022-10-08T18:21:08.934Z,10.83
2022-10-08T18:23:37.436Z,9.13
2022-10-08T18:26:10.029Z,8.07
2022-10-08T18:28:38.563Z,7.93
2022-10-08T18:31:07.467Z,12.97
2022-10-08T18:33:41.592Z,12.37
2022-10-08T18:36:11.492Z,12.70
2022-10-08T18:38:39.772Z,15.07
2022-10-08T18:41:15.371Z,15.57
2022-10-08T18:43:43.814Z,10.20
2022-10-08T18:46:12.344Z,9.27
2022-10-08T18:48:42.096Z,13.50
2022-10-08T18:51:12.072Z,17.40
2022-10-08T18:53:42.262Z,21.93
2022-10-08T18:56:12.493Z,20.10
2022-10-08T18:58:40.785Z,18.43
2022-10-08T19:01:17.183Z,14.17
2022-10-08T19:03:49.391Z,15.00
2022-10-08T19:06:18.461Z,13.10
2022-10-08T19:08:47.038Z,13.20
2022-10-08T19:11:16.672Z,13.30
2022-10-08T19:13:45.692Z,13.27
2022-10-08T19:16:15.408Z,15.77
2022-10-08T19:18:44.184Z,15.07
2022-10-08T19:21:15.242Z,20.27
2022-10-08T19:23:43.352Z,17.60
2022-10-08T19:26:12.171Z,18.60
2022-10-08T19:28:41.180Z,17.93
2022-10-08T19:31:16.585Z,17.00
2022-10-08T19:33:45.175Z,16.27
2022-10-08T19:36:16.253Z,15.20
2022-10-08T19:38:44.542Z,18.07
2022-10-08T19:41:13.254Z,13.87
2022-10-08T19:43:44.279Z,13.57
2022-10-08T19:46:13.311Z,12.13
2022-10-08T19:48:41.535Z,16.80
2022-10-08T19:51:11.526Z,13.43
2022-10-08T19:53:41.075Z,15.43
2022-10-08T19:56:10.792Z,14.23
2022-10-08T19:58:39.652Z,16.60
2022-10-08T20:01:09.620Z,14.23
2022-10-08T20:03:38.752Z,15.27
2022-10-08T20:06:09.226Z,15.10
2022-10-08T20:08:38.033Z,16.00
2022-10-08T20:11:09.495Z,15.23
2022-10-08T20:13:37.755Z,17.23
2022-10-08T20:16:06.781Z,16.43
2022-10-08T20:18:35.313Z,15.33
2022-10-08T20:21:04.272Z,16.00
2022-10-08T20:23:32.492Z,14.07
2022-10-08T20:26:11.362Z,12.77
2022-10-08T20:28:39.634Z,12.60
2022-10-08T20:31:15.216Z,19.87
2022-10-08T20:33:43.785Z,14.90
2022-10-08T20:36:13.554Z,17.83
2022-10-08T20:38:42.596Z,13.17
2022-10-08T20:41:12.253Z,12.13
2022-10-08T20:43:40.903Z,11.63
2022-10-08T20:46:11.523Z,12.00
2022-10-08T20:48:41.166Z,11.77
2022-10-08T20:51:11.164Z,11.40
2022-10-08T20:53:39.493Z,12.03
2022-10-08T20:56:09.615Z,12.23
2022-10-08T20:58:39.282Z,11.63
2022-10-08T21:01:09.657Z,11.17
2022-10-08T21:03:38.485Z,12.30
2022-10-08T21:06:08.014Z,12.23
2022-10-08T21:08:38.200Z,13.10
2022-10-08T21:11:07.302Z,12.83
2022-10-08T21:13:36.631Z,12.57
2022-10-08T21:16:08.238Z,14.00
2022-10-08T21:18:37.332Z,12.30
2022-10-08T21:21:06.706Z,13.23
2022-10-08T21:23:35.433Z,10.80
2022-10-08T21:26:08.012Z,11.57
2022-10-08T21:28:36.531Z,10.50
2022-10-08T21:31:06.924Z,10.00
2022-10-08T21:33:37.074Z,12.47
2022-10-08T21:36:05.991Z,9.83
2022-10-08T21:38:34.612Z,9.87
2022-10-08T21:41:08.943Z,8.80
2022-10-08T21:43:37.113Z,8.90
2022-10-08T21:46:07.363Z,9.17
2022-10-08T21:48:35.510Z,8.57
2022-10-08T21:51:05.736Z,8.50
2022-10-08T21:53:35.406Z,9.63
2022-10-08T21:56:05.326Z,9.90
2022-10-08T21:58:37.272Z,12.87
2022-10-08T22:01:07.407Z,9.17
2022-10-08T22:03:36.433Z,10.60
2022-10-08T22:06:05.526Z,9.03
2022-10-08T22:08:33.755Z,10.70
2022-10-08T22:11:02.025Z,8.37
2022-10-08T22:13:30.172Z,8.77
2022-10-08T22:16:00.095Z,9.57
2022-10-08T22:18:31.022Z,8.50
2022-10-08T22:21:02.963Z,9.10
2022-10-08T22:23:31.252Z,7.90
2022-10-08T22:26:01.992Z,11.43
2022-10-08T22:28:30.193Z,11.33
2022-10-08T22:31:00.533Z,30.10
2022-10-08T22:33:30.324Z,20.60
2022-10-08T22:36:02.330Z,19.80
2022-10-08T22:38:30.793Z,14.37
2022-10-08T22:41:03.594Z,11.60
2022-10-08T22:43:32.523Z,13.03
2022-10-08T22:46:03.361Z,12.03
2022-10-08T22:48:33.107Z,10.13
2022-10-08T22:51:05.225Z,10.53
2022-10-08T22:53:33.533Z,9.77
2022-10-08T22:56:04.675Z,10.00
2022-10-08T22:58:33.653Z,9.03
2022-10-08T23:01:03.483Z,11.57
2022-10-08T23:03:33.386Z,14.87
2022-10-08T23:06:03.193Z,17.30
2022-10-08T23:08:31.399Z,21.80
2022-10-08T23:10:59.843Z,21.97
2022-10-08T23:13:29.191Z,11.67
2022-10-08T23:16:02.815Z,13.63
2022-10-08T23:18:32.872Z,11.03
2022-10-08T23:21:03.393Z,10.53
2022-10-08T23:23:32.362Z,11.47
2022-10-08T23:26:01.955Z,13.70
2022-10-08T23:28:30.816Z,11.60
2022-10-08T23:31:05.833Z,10.97
2022-10-08T23:33:38.046Z,9.63
2022-10-08T23:36:06.904Z,11.17
2022-10-08T23:38:35.656Z,10.80
2022-10-08T23:41:06.342Z,12.60
2022-10-08T23:43:35.922Z,9.27
2022-10-08T23:46:04.440Z,9.47
2022-10-08T23:48:32.623Z,9.50
2022-10-08T23:51:02.233Z,9.60
2022-10-08T23:53:30.662Z,9.03
2022-10-08T23:55:58.992Z,8.80
2022-10-08T23:58:27.490Z,9.33
